Time;durP1;ratioP1;P1;durP2;ratioP2;P2;SDS_P1;SDS_P2;PMS_P1;PMS_P2;Temp;Humidity;BMP_temperature;BMP_pressure;BME280_temperature;BME280_humidity;BME280_pressure;Samples;Min_cycle;Max_cycle;Signal;HPM_P1;HPM_P2
2024/04/20 00:01:08;;;;;;;8.98;6.82;;;;;;;;;;5452241;26;20577;-35
2024/04/20 00:03:34;;;;;;;8.50;6.60;;;;;;;;;;5455755;26;20262;-35
2024/04/20 00:06:06;;;;;;;7.53;5.78;;;;;;;;;;5450454;26;20538;-35
2024/04/20 00:08:32;;;;;;;6.32;5.00;;;;;;;;;;5445571;26;20223;-35
2024/04/20 00:11:09;;;;;;;6.97;4.72;;;;;;;;;;5448529;26;20513;-35
2024/04/20 00:13:37;;;;;;;5.75;4.80;;;;;;;;;;5454723;26;20230;-35
2024/04/20 00:16:03;;;;;;;6.45;5.05;;;;;;;;;;5456612;26;20651;-35
2024/04/20 00:18:29;;;;;;;6.07;4.70;;;;;;;;;;5452047;26;20232;-35
2024/04/20 00:20:54;;;;;;;6.40;4.90;;;;;;;;;;5449649;26;20227;-36
2024/04/20 00:23:20;;;;;;;6.07;4.88;;;;;;;;;;5449336;26;20232;-36
2024/04/20 00:25:46;;;;;;;6.45;4.40;;;;;;;;;;5452895;26;20227;-35
2024/04/20 00:28:12;;;;;;;7.50;5.03;;;;;;;;;;5449537;26;20285;-35
2024/04/20 00:30:38;;;;;;;4.63;3.50;;;;;;;;;;5453146;26;20687;-35
2024/04/20 00:33:05;;;;;;;5.13;3.67;;;;;;;;;;5456127;26;20223;-35
2024/04/20 00:35:37;;;;;;;7.30;4.10;;;;;;;;;;5446037;26;20287;-35
2024/04/20 00:38:04;;;;;;;4.85;3.38;;;;;;;;;;5436329;26;20279;-36
2024/04/20 00:40:29;;;;;;;4.40;3.13;;;;;;;;;;5455509;26;20268;-36
2024/04/20 00:42:56;;;;;;;5.53;3.38;;;;;;;;;;5449208;26;20235;-35
2024/04/20 00:45:22;;;;;;;4.85;3.40;;;;;;;;;;5443610;26;20248;-36
2024/04/20 00:47:48;;;;;;;3.75;3.00;;;;;;;;;;5442770;26;20511;-36
2024/04/20 00:50:14;;;;;;;4.68;3.05;;;;;;;;;;5448578;26;20224;-36
2024/04/20 00:52:40;;;;;;;4.75;3.67;;;;;;;;;;5447775;26;20603;-35
2024/04/20 00:55:06;;;;;;;4.40;3.22;;;;;;;;;;5449871;26;20270;-36
2024/04/20 00:57:33;;;;;;;3.40;2.63;;;;;;;;;;5449056;26;20295;-36
2024/04/20 00:59:59;;;;;;;3.47;2.50;;;;;;;;;;5449535;26;20231;-35
2024/04/20 01:02:24;;;;;;;3.58;2.63;;;;;;;;;;5450170;26;20321;-36
2024/04/20 01:04:51;;;;;;;4.05;2.80;;;;;;;;;;5452626;26;20274;-35
2024/04/20 01:07:16;;;;;;;4.03;2.40;;;;;;;;;;5450842;26;20231;-35
2024/04/20 01:09:43;;;;;;;3.28;2.47;;;;;;;;;;5450773;26;20682;-36
2024/04/20 01:12:08;;;;;;;3.03;2.40;;;;;;;;;;5448274;26;20236;-35
2024/04/20 01:14:34;;;;;;;2.80;2.30;;;;;;;;;;5454044;26;20253;-36
2024/04/20 01:17:02;;;;;;;2.67;2.03;;;;;;;;;;5451865;26;20531;-36
2024/04/20 01:19:29;;;;;;;3.17;2.80;;;;;;;;;;5453755;26;20283;-36
2024/04/20 01:21:55;;;;;;;2.25;1.80;;;;;;;;;;5451126;26;20262;-36
2024/04/20 01:24:24;;;;;;;2.33;1.98;;;;;;;;;;5439147;26;20224;-35
2024/04/20 01:26:50;;;;;;;3.13;2.05;;;;;;;;;;5451944;26;20282;-38
2024/04/20 01:29:15;;;;;;;1.83;1.67;;;;;;;;;;5444599;26;20232;-36
2024/04/20 01:31:41;;;;;;;1.98;1.67;;;;;;;;;;5454259;26;20323;-35
2024/04/20 01:34:07;;;;;;;2.17;1.52;;;;;;;;;;5441419;26;20309;-35
2024/04/20 01:36:33;;;;;;;2.08;1.65;;;;;;;;;;5454259;26;20271;-35
2024/04/20 01:38:59;;;;;;;2.00;1.55;;;;;;;;;;5444941;26;20243;-35
2024/04/20 01:41:25;;;;;;;2.38;1.70;;;;;;;;;;5449673;26;20934;-36
2024/04/20 01:43:51;;;;;;;1.95;1.40;;;;;;;;;;5453553;26;20299;-36
2024/04/20 01:46:17;;;;;;;1.40;1.30;;;;;;;;;;5451609;26;20273;-37
2024/04/20 01:48:43;;;;;;;1.90;1.63;;;;;;;;;;5446502;26;20281;-36
2024/04/20 01:51:08;;;;;;;1.50;1.13;;;;;;;;;;5441783;26;20305;-35
2024/04/20 01:53:34;;;;;;;1.70;1.60;;;;;;;;;;5455628;26;20223;-35
2024/04/20 01:56:04;;;;;;;2.20;1.60;;;;;;;;;;5454100;26;20235;-35
2024/04/20 01:58:30;;;;;;;2.30;1.63;;;;;;;;;;5446001;26;20285;-35
2024/04/20 02:00:56;;;;;;;1.52;1.40;;;;;;;;;;5444019;26;20635;-35
2024/04/20 02:03:22;;;;;;;3.00;1.58;;;;;;;;;;5446576;26;20235;-35
2024/04/20 02:05:48;;;;;;;1.88;1.33;;;;;;;;;;5451678;26;20235;-35
2024/04/20 02:08:15;;;;;;;2.42;1.73;;;;;;;;;;5452383;26;20296;-36
2024/04/20 02:10:41;;;;;;;1.67;1.40;;;;;;;;;;5447768;26;20232;-36
2024/04/20 02:13:07;;;;;;;1.98;1.50;;;;;;;;;;5453425;26;20336;-36
2024/04/20 02:15:33;;;;;;;1.48;1.25;;;;;;;;;;5437279;26;20911;-36
2024/04/20 02:17:59;;;;;;;1.25;1.08;;;;;;;;;;5450180;26;20231;-36
2024/04/20 02:20:25;;;;;;;1.10;1.00;;;;;;;;;;5440634;26;20478;-35
2024/04/20 02:22:51;;;;;;;1.13;1.02;;;;;;;;;;5447309;26;20303;-36
2024/04/20 02:25:16;;;;;;;1.15;1.00;;;;;;;;;;5453989;26;20270;-35
2024/04/20 02:27:42;;;;;;;1.30;1.00;;;;;;;;;;5455407;26;20235;-35
2024/04/20 02:30:08;;;;;;;0.98;0.88;;;;;;;;;;5449558;26;20236;-35
2024/04/20 02:32:34;;;;;;;1.30;1.20;;;;;;;;;;5436922;26;20235;-35
2024/04/20 02:35:00;;;;;;;1.58;1.20;;;;;;;;;;5444997;26;20227;-35
2024/04/20 02:37:27;;;;;;;1.35;1.10;;;;;;;;;;5454238;26;20262;-35
2024/04/20 02:39:53;;;;;;;1.25;1.10;;;;;;;;;;5449002;26;20232;-35
2024/04/20 02:42:19;;;;;;;1.63;1.00;;;;;;;;;;5428183;26;20233;-35
2024/04/20 02:44:45;;;;;;;1.90;1.00;;;;;;;;;;5443206;26;20611;-36
2024/04/20 02:47:11;;;;;;;0.60;0.60;;;;;;;;;;5445197;26;20235;-36
2024/04/20 02:49:37;;;;;;;0.80;0.80;;;;;;;;;;5448809;26;20473;-36
2024/04/20 02:52:03;;;;;;;0.52;0.52;;;;;;;;;;5439801;26;20239;-36
2024/04/20 02:54:29;;;;;;;0.52;0.52;;;;;;;;;;5451209;26;20232;-35
2024/04/20 02:56:55;;;;;;;0.85;0.70;;;;;;;;;;5453288;26;20278;-35
2024/04/20 02:59:21;;;;;;;0.80;0.57;;;;;;;;;;5447754;26;20239;-35
2024/04/20 03:01:47;;;;;;;0.63;0.50;;;;;;;;;;5440059;26;20325;-36
2024/04/20 03:04:13;;;;;;;0.63;0.60;;;;;;;;;;5452674;26;20278;-35
2024/04/20 03:06:38;;;;;;;1.27;0.55;;;;;;;;;;5437357;26;20274;-36
2024/04/20 03:09:04;;;;;;;0.70;0.63;;;;;;;;;;5452073;26;20716;-36
2024/04/20 03:11:30;;;;;;;0.55;0.50;;;;;;;;;;5452413;26;20281;-36
2024/04/20 03:13:56;;;;;;;0.57;0.55;;;;;;;;;;5440290;26;20262;-36
2024/04/20 03:16:22;;;;;;;0.68;0.40;;;;;;;;;;5451904;26;20231;-36
2024/04/20 03:18:49;;;;;;;0.28;0.28;;;;;;;;;;5452691;26;20312;-36
2024/04/20 03:21:15;;;;;;;0.45;0.45;;;;;;;;;;5439607;26;20228;-36
2024/04/20 03:23:41;;;;;;;0.75;0.45;;;;;;;;;;5441980;26;20345;-35
2024/04/20 03:26:06;;;;;;;0.73;0.52;;;;;;;;;;5443828;26;20316;-36
2024/04/20 03:28:32;;;;;;;0.90;0.90;;;;;;;;;;5442414;26;20690;-36
2024/04/20 03:30:58;;;;;;;0.77;0.57;;;;;;;;;;5447741;26;20271;-36
2024/04/20 03:33:30;;;;;;;0.98;0.80;;;;;;;;;;5451402;26;20763;-36
2024/04/20 03:35:59;;;;;;;1.10;0.70;;;;;;;;;;5441141;26;20247;-37
2024/04/20 03:38:25;;;;;;;0.80;0.68;;;;;;;;;;5452395;26;20231;-36
2024/04/20 03:40:51;;;;;;;3.47;0.93;;;;;;;;;;5451546;26;20228;-36
2024/04/20 03:43:17;;;;;;;1.48;1.08;;;;;;;;;;5449425;26;20235;-35
2024/04/20 03:45:50;;;;;;;1.13;0.70;;;;;;;;;;5453532;26;20286;-36
2024/04/20 03:48:16;;;;;;;1.60;0.80;;;;;;;;;;5447994;26;20231;-36
2024/04/20 03:50:41;;;;;;;1.50;0.60;;;;;;;;;;5447252;26;20227;-36
2024/04/20 03:53:07;;;;;;;0.70;0.70;;;;;;;;;;5450026;26;20610;-36
2024/04/20 03:55:33;;;;;;;0.70;0.60;;;;;;;;;;5458525;26;20227;-36
2024/04/20 03:57:59;;;;;;;0.55;0.55;;;;;;;;;;5450515;26;20231;-35
2024/04/20 04:00:25;;;;;;;0.88;0.70;;;;;;;;;;5455146;26;20610;-35
2024/04/20 04:02:51;;;;;;;2.78;0.70;;;;;;;;;;5450501;26;20281;-35
2024/04/20 04:05:17;;;;;;;1.02;0.70;;;;;;;;;;5453503;26;20223;-35
2024/04/20 04:07:43;;;;;;;1.42;0.80;;;;;;;;;;5447341;26;20269;-35
2024/04/20 04:10:09;;;;;;;0.88;0.75;;;;;;;;;;5454344;26;20235;-35
2024/04/20 04:12:35;;;;;;;1.45;0.73;;;;;;;;;;5434952;26;20514;-35
2024/04/20 04:15:01;;;;;;;0.60;0.50;;;;;;;;;;5439292;26;20236;-36
2024/04/20 04:17:28;;;;;;;0.65;0.65;;;;;;;;;;5440997;26;20220;-35
2024/04/20 04:19:54;;;;;;;0.50;0.50;;;;;;;;;;5445694;26;20228;-36
2024/04/20 04:22:19;;;;;;;0.88;0.57;;;;;;;;;;5449071;26;20278;-37
2024/04/20 04:24:45;;;;;;;0.93;0.68;;;;;;;;;;5442684;26;20242;-36
2024/04/20 04:27:16;;;;;;;0.38;0.38;;;;;;;;;;5443374;26;20235;-35
2024/04/20 04:29:42;;;;;;;0.60;0.40;;;;;;;;;;5433959;26;20675;-36
2024/04/20 04:32:09;;;;;;;0.60;0.60;;;;;;;;;;5441646;26;20224;-36
2024/04/20 04:34:35;;;;;;;1.45;0.57;;;;;;;;;;5454018;26;20716;-36
2024/04/20 04:37:01;;;;;;;0.50;0.50;;;;;;;;;;5428764;26;20241;-36
2024/04/20 04:39:27;;;;;;;0.60;0.60;;;;;;;;;;5432964;26;20262;-36
2024/04/20 04:41:53;;;;;;;0.50;0.50;;;;;;;;;;5434829;26;20232;-35
2024/04/20 04:44:19;;;;;;;0.35;0.30;;;;;;;;;;5451269;26;20228;-36
2024/04/20 04:46:44;;;;;;;1.17;0.40;;;;;;;;;;5435944;26;20244;-36
2024/04/20 04:49:10;;;;;;;1.25;0.60;;;;;;;;;;5451569;26;20451;-36
2024/04/20 04:51:36;;;;;;;0.65;0.55;;;;;;;;;;5444343;26;20236;-38
2024/04/20 04:54:02;;;;;;;2.10;0.70;;;;;;;;;;5452607;26;20274;-38
2024/04/20 04:56:28;;;;;;;0.63;0.63;;;;;;;;;;5455236;26;20281;-46
2024/04/20 04:58:56;;;;;;;0.80;0.80;;;;;;;;;;5452402;26;20240;-38
2024/04/20 05:01:22;;;;;;;1.13;1.00;;;;;;;;;;5450846;26;20265;-38
2024/04/20 05:03:48;;;;;;;2.35;1.50;;;;;;;;;;5456303;26;20220;-38
2024/04/20 05:06:14;;;;;;;7.70;1.90;;;;;;;;;;5446042;26;20287;-38
2024/04/20 05:08:40;;;;;;;6.10;2.40;;;;;;;;;;5441486;26;20291;-38
2024/04/20 05:11:06;;;;;;;3.45;2.30;;;;;;;;;;5449223;26;20520;-36
2024/04/20 05:13:31;;;;;;;3.65;2.40;;;;;;;;;;5455735;26;20220;-35
2024/04/20 05:15:57;;;;;;;3.70;2.72;;;;;;;;;;5441885;26;20235;-36
2024/04/20 05:18:25;;;;;;;2.70;2.50;;;;;;;;;;5453833;26;20289;-38
2024/04/20 05:20:51;;;;;;;2.80;2.35;;;;;;;;;;5432174;26;20271;-38
2024/04/20 05:23:16;;;;;;;2.72;2.47;;;;;;;;;;5450573;26;20232;-38
2024/04/20 05:25:43;;;;;;;4.55;2.38;;;;;;;;;;5455667;26;20227;-40
2024/04/20 05:28:09;;;;;;;3.08;2.13;;;;;;;;;;5449652;26;20283;-41
2024/04/20 05:30:35;;;;;;;2.40;2.20;;;;;;;;;;5452777;26;20590;-41
2024/04/20 05:33:01;;;;;;;5.20;2.50;;;;;;;;;;5444954;26;20254;-37
2024/04/20 05:35:27;;;;;;;4.50;2.67;;;;;;;;;;5434777;26;22079;-38
2024/04/20 05:37:53;;;;;;;3.00;2.80;;;;;;;;;;5451469;26;22556;-38
2024/04/20 05:40:18;;;;;;;3.20;2.90;;;;;;;;;;5452580;26;20273;-38
2024/04/20 05:42:44;;;;;;;5.75;2.60;;;;;;;;;;5444777;26;20333;-38
2024/04/20 05:45:15;;;;;;;11.32;4.53;;;;;;;;;;5451940;26;20235;-38
2024/04/20 05:47:41;;;;;;;8.82;2.42;;;;;;;;;;5438486;26;20231;-38
2024/04/20 05:50:07;;;;;;;8.52;3.00;;;;;;;;;;5451098;26;20324;-37
2024/04/20 05:52:33;;;;;;;6.55;2.90;;;;;;;;;;5440099;26;20463;-37
2024/04/20 05:54:59;;;;;;;6.68;2.90;;;;;;;;;;5445021;26;20729;-38
2024/04/20 05:57:25;;;;;;;6.35;2.88;;;;;;;;;;5432505;26;20244;-38
2024/04/20 05:59:51;;;;;;;6.97;3.22;;;;;;;;;;5446750;26;20266;-38
2024/04/20 06:02:17;;;;;;;8.30;2.38;;;;;;;;;;5436902;26;20459;-35
2024/04/20 06:04:43;;;;;;;5.18;2.60;;;;;;;;;;5449744;26;20243;-37
2024/04/20 06:07:09;;;;;;;5.82;2.58;;;;;;;;;;5439451;26;20334;-45
2024/04/20 06:09:35;;;;;;;5.07;2.25;;;;;;;;;;5441312;26;20623;-42
2024/04/20 06:12:05;;;;;;;5.22;2.63;;;;;;;;;;5451717;26;20291;-38
2024/04/20 06:14:31;;;;;;;5.32;2.53;;;;;;;;;;5436993;26;20240;-42
2024/04/20 06:16:57;;;;;;;8.35;2.40;;;;;;;;;;5444897;26;20709;-45
2024/04/20 06:19:23;;;;;;;16.95;3.15;;;;;;;;;;5446100;26;20273;-39
2024/04/20 06:21:49;;;;;;;5.05;2.15;;;;;;;;;;5442450;26;20274;-38
2024/04/20 06:24:15;;;;;;;5.38;2.10;;;;;;;;;;5439633;26;20341;-37
2024/04/20 06:26:41;;;;;;;4.80;2.10;;;;;;;;;;5451741;26;20231;-36
2024/04/20 06:29:07;;;;;;;2.78;1.88;;;;;;;;;;5441966;26;20817;-43
2024/04/20 06:31:33;;;;;;;3.85;1.80;;;;;;;;;;5443896;26;20231;-35
2024/04/20 06:33:59;;;;;;;5.20;1.70;;;;;;;;;;5437980;26;20286;-48
2024/04/20 06:36:25;;;;;;;6.70;1.80;;;;;;;;;;5426942;26;20483;-38
2024/04/20 06:38:51;;;;;;;5.03;1.98;;;;;;;;;;5436628;26;20275;-42
2024/04/20 06:41:17;;;;;;;8.90;2.25;;;;;;;;;;5444063;26;20285;-37
2024/04/20 06:43:43;;;;;;;4.80;1.67;;;;;;;;;;5460919;26;20235;-45
2024/04/20 06:46:10;;;;;;;21.70;2.20;;;;;;;;;;5426664;26;20275;-42
2024/04/20 06:48:36;;;;;;;5.97;1.88;;;;;;;;;;5437817;26;20244;-45
2024/04/20 06:51:03;;;;;;;6.28;2.10;;;;;;;;;;5433108;26;20320;-35
2024/04/20 06:53:28;;;;;;;7.30;1.67;;;;;;;;;;5440370;26;20274;-38
2024/04/20 06:55:58;;;;;;;12.45;1.85;;;;;;;;;;5438477;26;20529;-38
2024/04/20 06:58:26;;;;;;;5.72;1.90;;;;;;;;;;5435550;26;20474;-37
2024/04/20 07:00:52;;;;;;;8.20;2.15;;;;;;;;;;5434126;26;20282;-37
2024/04/20 07:03:19;;;;;;;2.95;1.67;;;;;;;;;;5442129;26;20239;-38
2024/04/20 07:05:54;;;;;;;3.55;1.80;;;;;;;;;;5431768;26;20243;-37
2024/04/20 07:08:20;;;;;;;4.03;1.63;;;;;;;;;;5424933;26;20277;-38
2024/04/20 07:10:55;;;;;;;4.88;1.70;;;;;;;;;;5439772;26;20231;-37
2024/04/20 07:13:21;;;;;;;9.18;1.70;;;;;;;;;;5436455;26;20239;-40
2024/04/20 07:15:51;;;;;;;2.53;1.40;;;;;;;;;;5436246;26;20670;-45
2024/04/20 07:18:17;;;;;;;7.63;1.50;;;;;;;;;;5439964;26;20235;-43
2024/04/20 07:20:43;;;;;;;3.05;1.45;;;;;;;;;;5436247;26;20287;-40
2024/04/20 07:23:10;;;;;;;3.70;1.40;;;;;;;;;;5438037;26;20282;-37
2024/04/20 07:25:36;;;;;;;2.80;1.30;;;;;;;;;;5436698;26;20333;-36
2024/04/20 07:28:02;;;;;;;3.53;1.23;;;;;;;;;;5441408;26;20239;-46
2024/04/20 07:30:28;;;;;;;2.95;1.27;;;;;;;;;;5431560;26;20227;-44
2024/04/20 07:32:54;;;;;;;4.82;1.17;;;;;;;;;;5437923;26;20235;-37
2024/04/20 07:35:19;;;;;;;1.90;1.20;;;;;;;;;;5429717;26;20274;-39
2024/04/20 07:37:45;;;;;;;4.30;1.20;;;;;;;;;;5437762;26;20281;-39
2024/04/20 07:40:11;;;;;;;3.80;1.38;;;;;;;;;;5439693;26;20227;-38
2024/04/20 07:42:38;;;;;;;3.90;1.08;;;;;;;;;;5435611;26;21002;-38
2024/04/20 07:45:04;;;;;;;6.38;1.40;;;;;;;;;;5420399;26;20539;-36
2024/04/20 07:47:30;;;;;;;1.50;1.13;;;;;;;;;;5441334;26;20242;-38
2024/04/20 07:49:56;;;;;;;4.93;1.38;;;;;;;;;;5438901;26;20227;-39
2024/04/20 07:52:21;;;;;;;3.20;1.40;;;;;;;;;;5444236;26;20282;-39
2024/04/20 07:54:47;;;;;;;5.25;2.10;;;;;;;;;;5437382;26;20232;-39
2024/04/20 07:57:14;;;;;;;2.05;1.20;;;;;;;;;;5436331;26;20221;-39
2024/04/20 07:59:40;;;;;;;2.17;1.40;;;;;;;;;;5447782;26;20273;-39
2024/04/20 08:02:07;;;;;;;5.63;1.33;;;;;;;;;;5434640;26;20247;-39
2024/04/20 08:04:33;;;;;;;3.63;1.40;;;;;;;;;;5444387;26;20325;-39
2024/04/20 08:06:59;;;;;;;3.10;1.20;;;;;;;;;;5446680;26;20231;-38
2024/04/20 08:09:25;;;;;;;5.07;1.20;;;;;;;;;;5446687;26;20235;-38
2024/04/20 08:11:50;;;;;;;6.60;1.48;;;;;;;;;;5437236;26;20306;-38
2024/04/20 08:14:16;;;;;;;5.45;1.05;;;;;;;;;;5429424;26;21543;-38
2024/04/20 08:16:42;;;;;;;4.97;1.77;;;;;;;;;;5429477;26;20249;-38
2024/04/20 08:19:08;;;;;;;4.35;1.20;;;;;;;;;;5439955;26;20303;-38
2024/04/20 08:21:34;;;;;;;1.65;1.00;;;;;;;;;;5431633;26;20232;-38
2024/04/20 08:24:00;;;;;;;4.03;1.38;;;;;;;;;;5435679;26;20313;-39
2024/04/20 08:26:26;;;;;;;3.45;1.20;;;;;;;;;;5436577;26;20219;-39
2024/04/20 08:28:52;;;;;;;2.85;1.52;;;;;;;;;;5441340;26;20281;-39
2024/04/20 08:31:18;;;;;;;1.73;0.98;;;;;;;;;;5438482;26;20322;-39
2024/04/20 08:33:44;;;;;;;3.40;1.35;;;;;;;;;;5437602;26;20243;-38
2024/04/20 08:36:10;;;;;;;3.97;1.17;;;;;;;;;;5434591;26;20229;-38
2024/04/20 08:38:36;;;;;;;3.80;1.77;;;;;;;;;;5447429;26;20231;-38
2024/04/20 08:41:06;;;;;;;2.20;1.10;;;;;;;;;;5449561;26;20235;-38
2024/04/20 08:43:33;;;;;;;1.95;1.25;;;;;;;;;;5441886;26;20235;-39
2024/04/20 08:46:03;;;;;;;1.85;1.20;;;;;;;;;;5442745;26;20670;-39
2024/04/20 08:48:30;;;;;;;2.10;1.00;;;;;;;;;;5438217;26;20239;-39
2024/04/20 08:51:01;;;;;;;2.63;1.02;;;;;;;;;;5437098;26;20231;-39
2024/04/20 08:53:28;;;;;;;2.22;1.35;;;;;;;;;;5441369;26;20228;-38
2024/04/20 08:55:54;;;;;;;11.48;3.20;;;;;;;;;;5445274;26;20483;-37
2024/04/20 08:58:20;;;;;;;5.20;1.10;;;;;;;;;;5439316;26;20244;-38
2024/04/20 09:00:47;;;;;;;9.95;1.38;;;;;;;;;;5435915;26;20396;-38
2024/04/20 09:03:13;;;;;;;6.53;1.13;;;;;;;;;;5453790;26;20318;-38
2024/04/20 09:05:39;;;;;;;3.70;1.00;;;;;;;;;;5441053;26;20503;-39
2024/04/20 09:08:05;;;;;;;2.28;1.15;;;;;;;;;;5440673;26;20243;-39
2024/04/20 09:10:31;;;;;;;5.22;0.90;;;;;;;;;;5444449;26;20278;-39
2024/04/20 09:12:57;;;;;;;7.47;1.20;;;;;;;;;;5434809;26;20228;-39
2024/04/20 09:15:27;;;;;;;7.80;0.93;;;;;;;;;;5446873;26;20223;-38
2024/04/20 09:17:54;;;;;;;3.60;1.00;;;;;;;;;;5453726;26;20227;-39
2024/04/20 09:20:20;;;;;;;1.23;1.00;;;;;;;;;;5439059;26;20221;-39
2024/04/20 09:22:46;;;;;;;3.35;1.20;;;;;;;;;;5445475;26;20568;-39
2024/04/20 09:25:11;;;;;;;57.05;18.35;;;;;;;;;;5444732;26;20220;-39
2024/04/20 09:27:37;;;;;;;62.10;22.45;;;;;;;;;;5452622;26;20286;-39
2024/04/20 09:30:04;;;;;;;67.93;26.40;;;;;;;;;;5439999;26;20279;-39
2024/04/20 09:32:31;;;;;;;94.53;29.90;;;;;;;;;;5447122;26;20324;-39
2024/04/20 09:34:57;;;;;;;213.18;55.97;;;;;;;;;;5439584;26;20220;-38
2024/04/20 09:37:23;;;;;;;299.20;93.80;;;;;;;;;;5443490;26;20281;-38
2024/04/20 09:39:49;;;;;;;450.60;167.95;;;;;;;;;;5424367;26;20330;-38
2024/04/20 09:42:17;;;;;;;455.67;169.75;;;;;;;;;;5434415;26;20283;-38
2024/04/20 09:44:43;;;;;;;457.98;170.90;;;;;;;;;;5443675;26;20614;-39
2024/04/20 09:47:11;;;;;;;433.42;155.75;;;;;;;;;;5447652;26;20282;-39
2024/04/20 09:49:38;;;;;;;411.10;150.20;;;;;;;;;;5445830;26;20499;-38
2024/04/20 09:52:13;;;;;;;360.92;135.48;;;;;;;;;;5446916;26;20236;-38
2024/04/20 09:54:49;;;;;;;349.08;125.60;;;;;;;;;;5441141;26;20325;-38
2024/04/20 09:57:18;;;;;;;335.23;115.95;;;;;;;;;;5444943;26;20235;-39
2024/04/20 09:59:45;;;;;;;309.33;109.32;;;;;;;;;;5447105;26;20220;-39
2024/04/20 10:02:12;;;;;;;255.50;96.07;;;;;;;;;;5441643;26;20630;-39
2024/04/20 10:04:39;;;;;;;255.68;93.50;;;;;;;;;;5439933;26;20232;-38
2024/04/20 10:07:05;;;;;;;242.52;91.18;;;;;;;;;;5447314;26;20240;-39
2024/04/20 10:09:33;;;;;;;243.98;85.22;;;;;;;;;;5448911;26;20481;-40
2024/04/20 10:12:00;;;;;;;235.77;87.10;;;;;;;;;;5442911;26;20304;-39
2024/04/20 10:14:25;;;;;;;220.85;80.90;;;;;;;;;;5439023;26;20282;-39
2024/04/20 10:16:52;;;;;;;203.73;75.75;;;;;;;;;;5437820;26;20240;-39
2024/04/20 10:19:19;;;;;;;199.40;77.43;;;;;;;;;;5443234;26;20438;-39
2024/04/20 10:21:45;;;;;;;196.43;72.03;;;;;;;;;;5445468;26;21136;-39
2024/04/20 10:24:11;;;;;;;182.43;63.85;;;;;;;;;;5446883;26;20317;-39
2024/04/20 10:26:37;;;;;;;134.55;50.08;;;;;;;;;;5433099;26;20243;-39
2024/04/20 10:29:07;;;;;;;132.07;51.08;;;;;;;;;;5445277;26;20636;-39
2024/04/20 10:31:33;;;;;;;140.18;50.30;;;;;;;;;;5442905;26;20295;-39
2024/04/20 10:33:59;;;;;;;109.45;41.97;;;;;;;;;;5439931;26;20232;-39
2024/04/20 10:36:28;;;;;;;109.65;42.47;;;;;;;;;;5435065;26;20479;-39
2024/04/20 10:39:05;;;;;;;103.55;37.20;;;;;;;;;;5440432;26;20317;-39
2024/04/20 10:41:35;;;;;;;73.60;30.60;;;;;;;;;;5444693;26;20673;-39
2024/04/20 10:44:10;;;;;;;57.08;23.20;;;;;;;;;;5437205;26;20278;-39
2024/04/20 10:46:36;;;;;;;47.92;19.20;;;;;;;;;;5439463;26;20234;-39
2024/04/20 10:49:04;;;;;;;37.28;17.02;;;;;;;;;;5443178;26;20309;-39
2024/04/20 10:51:30;;;;;;;34.00;14.02;;;;;;;;;;5445057;26;20292;-39
2024/04/20 10:54:00;;;;;;;31.55;14.10;;;;;;;;;;5441494;26;20271;-39
2024/04/20 10:56:27;;;;;;;23.85;11.10;;;;;;;;;;5442934;26;20287;-39
2024/04/20 10:58:53;;;;;;;22.10;10.35;;;;;;;;;;5440888;26;20308;-39
2024/04/20 11:01:19;;;;;;;22.08;10.18;;;;;;;;;;5441593;26;20235;-39
2024/04/20 11:03:45;;;;;;;18.00;8.00;;;;;;;;;;5442046;26;20239;-38
2024/04/20 11:06:18;;;;;;;16.55;6.93;;;;;;;;;;5458242;26;20273;-39
2024/04/20 11:08:44;;;;;;;13.52;6.68;;;;;;;;;;5451278;26;20223;-39
2024/04/20 11:11:10;;;;;;;11.23;5.10;;;;;;;;;;5448948;26;20691;-39
2024/04/20 11:13:37;;;;;;;8.38;4.90;;;;;;;;;;5440938;26;20231;-39
2024/04/20 11:16:04;;;;;;;6.55;3.55;;;;;;;;;;5443405;26;20254;-39
2024/04/20 11:18:30;;;;;;;6.57;3.72;;;;;;;;;;5444485;26;20714;-39
2024/04/20 11:20:56;;;;;;;6.70;3.55;;;;;;;;;;5442884;26;20626;-39
2024/04/20 11:23:24;;;;;;;6.15;3.30;;;;;;;;;;5427560;26;20283;-39
2024/04/20 11:25:56;;;;;;;6.22;3.35;;;;;;;;;;5433850;26;20239;-39
2024/04/20 11:28:26;;;;;;;4.28;3.10;;;;;;;;;;5444406;26;20283;-39
2024/04/20 11:30:52;;;;;;;5.40;2.72;;;;;;;;;;5449948;26;20251;-39
2024/04/20 11:33:18;;;;;;;4.75;2.45;;;;;;;;;;5429846;26;20228;-39
2024/04/20 11:35:47;;;;;;;2.65;1.65;;;;;;;;;;5443330;26;20271;-38
2024/04/20 11:38:14;;;;;;;3.35;1.73;;;;;;;;;;5442536;26;20338;-39
2024/04/20 11:40:47;;;;;;;3.03;1.70;;;;;;;;;;5449916;26;20223;-39
2024/04/20 11:43:18;;;;;;;4.55;1.80;;;;;;;;;;5443399;26;20232;-39
2024/04/20 11:45:45;;;;;;;2.55;1.45;;;;;;;;;;5443378;26;20286;-39
2024/04/20 11:48:11;;;;;;;2.30;1.65;;;;;;;;;;5452112;26;20235;-39
2024/04/20 11:50:40;;;;;;;3.83;1.52;;;;;;;;;;5450575;26;20457;-39
2024/04/20 11:55:51;;;;;;;3.10;2.00;;;;;;;;;;5453336;26;20295;-39
2024/04/20 11:58:17;;;;;;;3.47;1.75;;;;;;;;;;5440127;26;20433;-39
2024/04/20 12:00:43;;;;;;;2.45;1.60;;;;;;;;;;5450524;26;20269;-40
2024/04/20 12:03:09;;;;;;;1.58;1.48;;;;;;;;;;5436662;26;20274;-38
2024/04/20 12:05:35;;;;;;;3.85;1.40;;;;;;;;;;5455271;26;20223;-39
2024/04/20 12:08:00;;;;;;;2.40;1.45;;;;;;;;;;5450502;26;20232;-39
2024/04/20 12:10:26;;;;;;;2.78;1.40;;;;;;;;;;5454070;26;20219;-39
2024/04/20 12:12:52;;;;;;;2.35;1.55;;;;;;;;;;5439765;26;20677;-39
2024/04/20 12:15:18;;;;;;;1.40;1.10;;;;;;;;;;5452796;26;20463;-39
2024/04/20 12:17:44;;;;;;;2.08;1.30;;;;;;;;;;5442215;26;20229;-39
2024/04/20 12:20:11;;;;;;;1.88;1.35;;;;;;;;;;5440063;26;20477;-39
2024/04/20 12:22:37;;;;;;;2.17;1.27;;;;;;;;;;5446006;26;20262;-39
2024/04/20 12:25:03;;;;;;;3.50;1.45;;;;;;;;;;5444339;26;20228;-39
2024/04/20 12:27:29;;;;;;;2.88;1.38;;;;;;;;;;5446693;26;20282;-39
2024/04/20 12:29:55;;;;;;;1.75;1.20;;;;;;;;;;5444805;26;20219;-39
2024/04/20 12:32:22;;;;;;;2.40;1.10;;;;;;;;;;5445881;26;20239;-39
2024/04/20 12:34:48;;;;;;;1.83;1.20;;;;;;;;;;5438751;26;20228;-39
2024/04/20 12:37:18;;;;;;;1.38;1.05;;;;;;;;;;5445356;26;20274;-39
2024/04/20 12:39:44;;;;;;;1.80;1.27;;;;;;;;;;5443269;26;20629;-39
2024/04/20 12:42:10;;;;;;;1.50;1.40;;;;;;;;;;5447395;26;20228;-39
2024/04/20 12:44:36;;;;;;;3.58;1.52;;;;;;;;;;5436597;26;20308;-39
2024/04/20 12:47:02;;;;;;;1.23;1.02;;;;;;;;;;5441613;26;20279;-39
2024/04/20 12:49:28;;;;;;;2.33;1.17;;;;;;;;;;5447508;26;20231;-39
2024/04/20 12:51:54;;;;;;;1.10;1.00;;;;;;;;;;5445824;26;20278;-39
2024/04/20 12:54:21;;;;;;;2.28;1.55;;;;;;;;;;5447874;26;20267;-40
2024/04/20 12:56:47;;;;;;;1.23;1.13;;;;;;;;;;5448462;26;20318;-39
2024/04/20 12:59:13;;;;;;;1.92;1.40;;;;;;;;;;5451834;26;20642;-39
2024/04/20 13:01:39;;;;;;;2.05;1.20;;;;;;;;;;5450487;26;20235;-39
2024/04/20 13:04:06;;;;;;;3.35;0.98;;;;;;;;;;5443381;26;20236;-39
2024/04/20 13:06:34;;;;;;;1.85;1.30;;;;;;;;;;5455659;26;20219;-39
2024/04/20 13:09:00;;;;;;;1.33;1.00;;;;;;;;;;5444398;26;20233;-39
2024/04/20 13:11:26;;;;;;;1.52;1.20;;;;;;;;;;5434920;26;20274;-39
2024/04/20 13:13:52;;;;;;;1.52;1.38;;;;;;;;;;5453775;26;20506;-39
2024/04/20 13:16:18;;;;;;;1.83;1.10;;;;;;;;;;5453083;26;20228;-39
2024/04/20 13:18:44;;;;;;;2.13;1.13;;;;;;;;;;5448397;26;20236;-39
2024/04/20 13:21:10;;;;;;;1.65;1.20;;;;;;;;;;5444576;26;20231;-39
2024/04/20 13:23:35;;;;;;;1.20;1.10;;;;;;;;;;5450133;26;20231;-40
2024/04/20 13:26:02;;;;;;;3.80;1.35;;;;;;;;;;5448536;26;20228;-39
2024/04/20 13:28:28;;;;;;;2.42;1.30;;;;;;;;;;5434862;26;20460;-39
2024/04/20 13:30:54;;;;;;;4.68;0.90;;;;;;;;;;5437379;26;20263;-39
2024/04/20 13:33:20;;;;;;;1.70;0.80;;;;;;;;;;5449924;26;20271;-39
2024/04/20 13:35:56;;;;;;;1.17;1.05;;;;;;;;;;5452548;26;20275;-39
2024/04/20 13:38:22;;;;;;;1.55;0.85;;;;;;;;;;5434822;26;20273;-39
2024/04/20 13:40:52;;;;;;;2.65;1.25;;;;;;;;;;5455636;26;20220;-40
2024/04/20 13:43:18;;;;;;;1.88;0.90;;;;;;;;;;5447693;26;20232;-39
2024/04/20 13:45:44;;;;;;;3.97;1.00;;;;;;;;;;5438736;26;20319;-39
2024/04/20 13:48:10;;;;;;;1.63;0.80;;;;;;;;;;5446412;26;20239;-39
2024/04/20 13:50:38;;;;;;;0.80;0.77;;;;;;;;;;5443411;26;20242;-39
2024/04/20 13:53:05;;;;;;;1.52;0.93;;;;;;;;;;5438792;26;20309;-39
2024/04/20 13:55:34;;;;;;;1.65;0.70;;;;;;;;;;5432168;26;20273;-38
2024/04/20 13:58:03;;;;;;;1.10;0.80;;;;;;;;;;5435894;26;20223;-39
2024/04/20 14:00:28;;;;;;;2.78;0.90;;;;;;;;;;5431818;26;20270;-39
2024/04/20 14:02:54;;;;;;;2.72;0.93;;;;;;;;;;5431398;26;20270;-39
2024/04/20 14:05:20;;;;;;;1.60;0.93;;;;;;;;;;5436116;26;20285;-40
2024/04/20 14:07:46;;;;;;;2.67;0.95;;;;;;;;;;5448584;26;20271;-39
2024/04/20 14:10:15;;;;;;;1.60;0.70;;;;;;;;;;5431579;26;20263;-39
2024/04/20 14:12:42;;;;;;;2.78;0.70;;;;;;;;;;5448016;26;20278;-39
2024/04/20 14:15:08;;;;;;;7.05;0.95;;;;;;;;;;5438702;26;20334;-39
2024/04/20 14:17:34;;;;;;;4.78;0.80;;;;;;;;;;5448154;26;20336;-39
2024/04/20 14:20:01;;;;;;;2.92;0.70;;;;;;;;;;5447752;26;20476;-39
2024/04/20 14:22:30;;;;;;;9.45;1.40;;;;;;;;;;5439028;26;20662;-39
2024/04/20 14:24:56;;;;;;;7.32;1.20;;;;;;;;;;5448833;26;20334;-39
2024/04/20 14:27:26;;;;;;;7.82;0.95;;;;;;;;;;5445026;26;20231;-40
2024/04/20 14:29:53;;;;;;;6.50;1.05;;;;;;;;;;5435854;26;20357;-39
2024/04/20 14:32:20;;;;;;;7.35;1.25;;;;;;;;;;5439474;26;20619;-39
2024/04/20 14:34:46;;;;;;;4.00;1.10;;;;;;;;;;5448138;26;20299;-40
2024/04/20 14:37:12;;;;;;;2.65;0.77;;;;;;;;;;5444896;26;20227;-39